Morton, WA (98356)

12:35 AM PST on December 10, 2016 (GMT -0800)
Anderson Road | | Change Station
Active Advisory: Winter Weather Advisory Active Notice: Public Information Statement

Elev 810 ft 46.51 °N, 122.16 °W | Updated 2 minutes ago

Rain
Rain
32.0 °F
Feels Like 32 °F
N
0.0
Wind Variable Wind from North

Today
High -- | Low -- °F
--% Chance of Precip.
Yesterday
High -- | Low -- °F
Precip. -- in
Pressure 29.86 in
Visibility 4.0 miles
Clouds Mostly Cloudy 3000 ft
Overcast 4700 ft
Windchill 32 °F
Dew Point 32 °F
Humidity 99%
Rainfall 0.00 in
Snow Depth Not available.
7:42 AM 4:21 PM
Waxing Gibbous, 81% visible
METAR KCLS 100815Z AUTO 16008KT 4SM -RA BKN030 OVC047 03/03 A2986 RMK AO2
Pressure 29.86 in
Visibility 4.0 miles
Clouds Mostly Cloudy 3000 ft
Overcast 4700 ft
Windchill 32 °F
Dew Point 32 °F
Humidity 99%
Rainfall 0.00 in
Snow Depth Not available.
7:42 AM 4:21 PM
Waxing Gibbous, 81% visible
METAR KCLS 100815Z AUTO 16008KT 4SM -RA BKN030 OVC047 03/03 A2986 RMK AO2

10-Day Weather Forecast

Almanac

Astronomy

Dec. 10, 2016 Rise Set
Actual Time
Civil Twilight
Nautical Twilight
Astronomical Twilight
Moon
Length of Visible Light
Length of Day
Tomorrow will be .
, % of the Moon is Illuminated

Today's Extremes

State Highs State Lows

Community

WunderPhotos

Upload Photos

1,956,538 photos uploaded!

WunderBlog® & News

Nearby

Air Quality

  Air Quality AQ Index Pollutant
Not available.

Snow Depth

Station Depth Elevation

Earthquake Activity

City Distance Mag. Time & Date
Minimum magnitude displayed is 2.5.

Coastal Water Temperatures

Place Temperature

Stations

Nearby Weather Stations

Station Location Temp. Windchill Dew Point Humidity Wind Precip. Elev Updated Type
                   

Watches & Warnings

Winter Weather Advisory
Issued: 8:03 PM PST Dec. 9, 2016 – National Weather Service

... Winter Weather Advisory remains in effect until 3 am PST
Saturday...

* timing... snowfall will continue overnight and will diminish
during the early morning hours on Saturday.

* Accumulation... additional snow accumulations of 5 to 10 inches
of snow are expected overnight.

* Main impact... travel will be affected as roads may become
slippery and winds combined with snow may reduce visibility at
times.

Precautionary/preparedness actions...

People planning on travel through tonight should expect winter
driving conditions.